Time;durP1;ratioP1;P1;durP2;ratioP2;P2;SDS_P1;SDS_P2;PMS_P1;PMS_P2;Temp;Humidity;BMP_temperature;BMP_pressure;BME280_temperature;BME280_humidity;BME280_pressure;Samples;Min_cycle;Max_cycle;Signal;HPM_P1;HPM_P2
2022/06/23 00:01:53;;;;;;;9.67;8.87;;;;;;;19.11;100.00;98971.19;5074184;28;20242;-81
2022/06/23 00:04:23;;;;;;;9.73;8.93;;;;;;;19.08;100.00;98969.06;5064051;28;20244;-82
2022/06/23 00:07:03;;;;;;;9.63;8.83;;;;;;;19.10;100.00;98973.09;5060238;28;20694;-80
2022/06/23 00:09:37;;;;;;;10.17;9.37;;;;;;;19.06;100.00;98969.34;5086861;28;20278;-82
2022/06/23 00:12:18;;;;;;;9.70;9.00;;;;;;;19.05;100.00;98969.63;5075676;28;20233;-81
2022/06/23 00:14:49;;;;;;;9.70;9.00;;;;;;;19.04;100.00;98970.72;5091355;28;20555;-82
2022/06/23 00:17:24;;;;;;;10.20;9.17;;;;;;;19.05;100.00;98981.28;5087094;28;20233;-83
2022/06/23 00:19:50;;;;;;;9.97;9.17;;;;;;;19.02;100.00;98983.78;5090484;28;20240;-80
2022/06/23 00:22:20;;;;;;;9.50;8.80;;;;;;;19.04;100.00;98992.44;5093713;28;20229;-81
2022/06/23 00:24:53;;;;;;;9.77;8.90;;;;;;;19.01;100.00;98995.75;5085362;28;20225;-83
2022/06/23 00:27:22;;;;;;;9.53;8.77;;;;;;;18.99;100.00;99004.16;5094954;28;20572;-82
2022/06/23 00:29:48;;;;;;;10.10;9.30;;;;;;;18.96;100.00;99004.75;5095321;28;20322;-82
2022/06/23 00:32:15;;;;;;;9.90;9.00;;;;;;;18.93;100.00;99010.78;5088457;28;20614;-82
2022/06/23 00:34:51;;;;;;;9.93;9.13;;;;;;;18.91;100.00;99002.91;5092153;28;20322;-83
2022/06/23 00:37:19;;;;;;;10.00;9.13;;;;;;;18.85;100.00;98997.81;5085123;28;20227;-82
2022/06/23 00:39:54;;;;;;;9.70;8.90;;;;;;;18.86;100.00;99005.66;5096032;28;20717;-81
2022/06/23 00:42:29;;;;;;;9.47;8.70;;;;;;;18.83;100.00;99019.84;5088811;28;20232;-83
2022/06/23 00:45:00;;;;;;;9.93;8.97;;;;;;;18.80;100.00;99022.31;5096494;28;20231;-83
2022/06/23 00:47:46;;;;;;;9.37;8.60;;;;;;;18.81;100.00;99030.16;5088902;28;20323;-82
2022/06/23 00:50:35;;;;;;;9.37;8.67;;;;;;;18.80;100.00;99033.97;5104032;28;20245;-82
2022/06/23 00:53:12;;;;;;;10.17;9.37;;;;;;;18.79;100.00;99043.22;5090383;28;20238;-82
2022/06/23 00:56:04;;;;;;;9.93;9.03;;;;;;;18.77;100.00;99039.16;5090154;28;20207;-82
2022/06/23 00:58:37;;;;;;;10.50;9.37;;;;;;;18.74;100.00;99045.97;5089853;28;20275;-82
2022/06/23 01:01:13;;;;;;;10.10;9.30;;;;;;;18.74;100.00;99053.31;5090873;28;21002;-83
2022/06/23 01:04:05;;;;;;;10.23;9.17;;;;;;;18.71;100.00;99051.97;5093844;28;20229;-81
2022/06/23 01:06:40;;;;;;;9.80;9.00;;;;;;;18.70;100.00;99034.09;5074061;28;20281;-83
2022/06/23 01:09:36;;;;;;;11.17;10.20;;;;;;;18.68;100.00;99038.16;5095115;28;20230;-81
2022/06/23 01:12:27;;;;;;;11.73;10.30;;;;;;;18.64;100.00;99039.84;5092096;28;20266;-82
2022/06/23 01:15:20;;;;;;;11.07;9.97;;;;;;;18.66;100.00;99034.94;5092904;28;20249;-81
2022/06/23 01:18:01;;;;;;;11.27;10.27;;;;;;;18.66;100.00;99029.53;5093869;28;20240;-82
2022/06/23 01:21:02;;;;;;;11.07;10.07;;;;;;;18.65;100.00;99031.41;5086975;28;20228;-82
2022/06/23 01:23:55;;;;;;;10.33;9.60;;;;;;;18.67;100.00;99031.13;5085559;28;20224;-82
2022/06/23 01:26:40;;;;;;;10.80;9.77;;;;;;;18.63;100.00;99039.03;5089321;28;20236;-82
2022/06/23 01:29:30;;;;;;;10.93;9.87;;;;;;;18.64;100.00;99046.06;5089965;28;20225;-81
2022/06/23 01:32:24;;;;;;;11.30;10.40;;;;;;;18.68;100.00;99054.44;5079114;28;20280;-82
2022/06/23 01:34:59;;;;;;;10.87;9.80;;;;;;;18.66;100.00;99046.59;5097478;28;20237;-82
2022/06/23 01:37:55;;;;;;;10.83;9.93;;;;;;;18.67;100.00;99050.09;5065577;28;20267;-82
2022/06/23 01:40:41;;;;;;;11.03;10.13;;;;;;;18.58;100.00;99044.50;5088681;28;20278;-82
2022/06/23 01:43:24;;;;;;;11.90;10.80;;;;;;;18.52;100.00;99051.06;5098643;28;20242;-82
2022/06/23 01:45:59;;;;;;;11.03;10.13;;;;;;;18.48;100.00;99047.25;5101627;28;20689;-82
2022/06/23 01:48:51;;;;;;;11.00;10.00;;;;;;;18.46;100.00;99046.75;5118526;27;20240;-82
2022/06/23 01:51:50;;;;;;;12.07;10.83;;;;;;;18.43;100.00;99053.53;5081700;27;20240;-82
2022/06/23 01:54:25;;;;;;;11.23;10.23;;;;;;;18.44;100.00;99059.78;5105694;28;20241;-83
2022/06/23 01:57:01;;;;;;;12.00;11.00;;;;;;;18.42;100.00;99053.84;5104751;27;20223;-82
2022/06/23 01:59:50;;;;;;;11.90;10.80;;;;;;;18.41;100.00;99053.03;5097040;28;20236;-82
2022/06/23 02:02:25;;;;;;;11.53;10.43;;;;;;;18.42;100.00;99051.13;5112545;28;20254;-82
2022/06/23 02:05:13;;;;;;;11.83;10.83;;;;;;;18.42;100.00;99054.66;5124701;27;20272;-81
2022/06/23 02:07:39;;;;;;;11.43;10.40;;;;;;;18.42;100.00;99062.00;5100087;27;20230;-81
2022/06/23 02:10:18;;;;;;;10.93;9.97;;;;;;;18.38;100.00;99072.56;5112214;27;20329;-81
2022/06/23 02:12:46;;;;;;;10.63;9.83;;;;;;;18.35;100.00;99069.63;5086980;28;20243;-82
2022/06/23 02:15:24;;;;;;;11.03;10.13;;;;;;;18.27;100.00;99067.53;5090822;27;20639;-82
2022/06/23 02:18:01;;;;;;;11.33;10.40;;;;;;;18.24;100.00;99079.75;5098744;27;20584;-82
2022/06/23 02:20:58;;;;;;;11.10;10.17;;;;;;;18.19;100.00;99087.13;5097333;28;20268;-82
2022/06/23 02:23:31;;;;;;;10.53;9.63;;;;;;;18.09;100.00;99079.88;5102787;27;20240;-81
2022/06/23 02:26:03;;;;;;;10.60;9.77;;;;;;;18.07;100.00;99076.59;5110590;28;20229;-82
2022/06/23 02:28:40;;;;;;;10.70;9.87;;;;;;;18.04;100.00;99083.41;5089337;28;20239;-82
2022/06/23 02:31:12;;;;;;;11.20;10.30;;;;;;;17.98;100.00;99079.13;5098342;27;20233;-83
2022/06/23 02:33:46;;;;;;;11.00;10.10;;;;;;;17.94;100.00;99085.38;5101603;27;20298;-81
2022/06/23 02:36:34;;;;;;;10.93;10.10;;;;;;;17.90;100.00;99087.03;5107432;27;20705;-82
2022/06/23 02:39:05;;;;;;;10.60;9.67;;;;;;;17.82;100.00;99083.03;5105993;27;20245;-81
2022/06/23 02:41:42;;;;;;;10.43;9.57;;;;;;;17.74;100.00;99085.47;5087053;27;20231;-83
2022/06/23 02:44:36;;;;;;;10.93;10.07;;;;;;;17.71;100.00;99095.00;5112595;27;20215;-84
2022/06/23 02:47:16;;;;;;;11.23;10.43;;;;;;;17.70;100.00;99104.19;5120161;27;20242;-82
2022/06/23 02:50:13;;;;;;;10.80;10.00;;;;;;;17.63;100.00;99111.84;5103328;27;20311;-82
2022/06/23 02:53:02;;;;;;;10.90;10.07;;;;;;;17.57;100.00;99112.91;5107538;28;20222;-82
2022/06/23 02:55:38;;;;;;;10.40;9.60;;;;;;;17.53;100.00;99109.94;5096593;27;20235;-83
2022/06/23 02:58:12;;;;;;;11.13;10.33;;;;;;;17.51;100.00;99111.28;5119588;27;20224;-82
2022/06/23 03:00:45;;;;;;;11.37;10.37;;;;;;;17.53;100.00;99115.38;5119187;27;20213;-82
2022/06/23 03:03:34;;;;;;;12.83;11.83;;;;;;;17.52;100.00;99111.03;5102451;28;20257;-82
2022/06/23 03:06:24;;;;;;;12.27;11.13;;;;;;;17.50;100.00;99124.03;5079876;28;20247;-78
2022/06/23 03:08:51;;;;;;;11.30;10.40;;;;;;;17.48;100.00;99126.22;5111088;27;20268;-82
2022/06/23 03:11:52;;;;;;;11.27;10.30;;;;;;;17.49;100.00;99127.03;5113769;27;20224;-82
2022/06/23 03:14:32;;;;;;;11.27;10.27;;;;;;;17.46;100.00;99125.66;5094712;28;20265;-82
2022/06/23 03:17:12;;;;;;;11.53;10.63;;;;;;;17.45;100.00;99124.03;5093834;27;20233;-82
2022/06/23 03:19:43;;;;;;;11.80;10.80;;;;;;;17.48;100.00;99120.78;5104396;28;20602;-82
2022/06/23 03:22:24;;;;;;;10.50;9.47;;;;;;;17.52;100.00;99116.44;5098244;27;20227;-83
2022/06/23 03:24:51;;;;;;;11.13;10.23;;;;;;;17.58;100.00;99117.25;5106330;28;20588;-82
2022/06/23 03:27:34;;;;;;;10.70;9.60;;;;;;;17.60;100.00;99121.31;5111887;27;20231;-82
2022/06/23 03:30:05;;;;;;;9.77;8.97;;;;;;;17.66;100.00;99118.56;5074452;28;20232;-80
2022/06/23 03:32:36;;;;;;;10.20;9.43;;;;;;;17.67;100.00;99121.03;5093268;28;20714;-81
2022/06/23 03:35:36;;;;;;;10.67;9.77;;;;;;;17.70;100.00;99134.00;5084899;28;20232;-84
2022/06/23 03:38:04;;;;;;;10.57;9.53;;;;;;;17.80;100.00;99141.28;5039423;28;20254;-82
2022/06/23 03:43:46;;;;;;;9.67;8.97;;;;;;;17.98;100.00;99136.03;5091596;28;20229;-82
2022/06/23 03:46:33;;;;;;;9.80;9.03;;;;;;;18.07;100.00;99138.16;5110625;28;20234;-82
2022/06/23 03:49:39;;;;;;;9.80;9.00;;;;;;;18.13;100.00;99142.44;5105327;27;20288;-82
2022/06/23 03:52:15;;;;;;;9.80;9.00;;;;;;;18.16;100.00;99141.88;5074791;28;20235;-81
2022/06/23 03:54:54;;;;;;;9.93;9.03;;;;;;;18.21;100.00;99148.09;5102529;28;20247;-81
2022/06/23 03:57:26;;;;;;;9.47;8.77;;;;;;;18.29;100.00;99144.78;5103626;27;20318;-82
2022/06/23 04:00:09;;;;;;;9.73;9.03;;;;;;;18.39;100.00;99141.19;5085216;28;20330;-83
2022/06/23 04:02:41;;;;;;;10.40;9.33;;;;;;;18.54;100.00;99145.72;5105500;27;20233;-82
2022/06/23 04:05:16;;;;;;;9.70;8.97;;;;;;;18.64;100.00;99141.03;5089971;28;20236;-81
2022/06/23 04:07:48;;;;;;;10.20;9.30;;;;;;;18.81;100.00;99143.31;5111285;27;20273;-82
2022/06/23 04:10:26;;;;;;;10.83;9.70;;;;;;;18.90;100.00;99150.56;5105984;28;20677;-82
2022/06/23 04:13:34;;;;;;;9.90;9.20;;;;;;;19.16;100.00;99164.72;5104642;27;20242;-82
2022/06/23 04:16:04;;;;;;;10.20;9.40;;;;;;;19.38;100.00;99163.41;5081825;28;20232;-82
2022/06/23 04:18:31;;;;;;;10.17;9.20;;;;;;;19.64;100.00;99157.41;5073023;28;20636;-82
2022/06/23 04:21:04;;;;;;;10.33;9.57;;;;;;;19.97;100.00;99169.25;5090640;27;20322;-83
2022/06/23 04:23:34;;;;;;;11.40;10.40;;;;;;;20.23;100.00;99169.72;5073430;27;20734;-82
2022/06/23 04:26:07;;;;;;;10.80;9.80;;;;;;;21.01;100.00;99177.22;5090579;27;20228;-82
2022/06/23 04:28:50;;;;;;;11.60;10.60;;;;;;;22.07;100.00;99180.66;5094643;27;20228;-82
2022/06/23 04:31:24;;;;;;;9.63;8.90;;;;;;;22.67;100.00;99189.44;5109375;27;20241;-82
2022/06/23 04:33:52;;;;;;;9.40;8.53;;;;;;;23.32;100.00;99199.03;5108922;27;20235;-82
2022/06/23 04:36:22;;;;;;;9.90;8.90;;;;;;;24.18;100.00;99193.91;5089828;28;20313;-82
2022/06/23 04:39:08;;;;;;;10.15;8.82;;;;;;;24.99;100.00;99198.50;5109981;28;20241;-82
2022/06/23 04:41:41;;;;;;;9.20;8.40;;;;;;;24.96;100.00;99195.59;5086308;28;20287;-81
2022/06/23 04:44:23;;;;;;;9.00;7.85;;;;;;;24.32;100.00;99197.31;5111254;27;20236;-80
2022/06/23 04:46:54;;;;;;;8.73;7.95;;;;;;;23.77;100.00;99195.06;5085438;28;20254;-82
2022/06/23 04:49:25;;;;;;;10.32;9.02;;;;;;;23.46;100.00;99197.84;5087942;27;20286;-81
2022/06/23 04:52:01;;;;;;;10.23;9.02;;;;;;;23.02;100.00;99195.97;5106674;27;20235;-82
2022/06/23 04:54:35;;;;;;;10.15;9.13;;;;;;;22.95;100.00;99195.59;5103361;28;20231;-81
2022/06/23 04:57:20;;;;;;;9.73;8.93;;;;;;;23.15;100.00;99202.44;5091886;28;20276;-81
2022/06/23 04:59:52;;;;;;;9.93;9.00;;;;;;;23.37;100.00;99210.66;5102379;27;20726;-83
2022/06/23 05:02:28;;;;;;;10.35;9.38;;;;;;;23.48;100.00;99205.72;5090882;27;20227;-82
2022/06/23 05:05:01;;;;;;;9.60;8.80;;;;;;;23.58;100.00;99210.91;5105594;28;20715;-80
2022/06/23 05:07:33;;;;;;;9.73;8.93;;;;;;;23.48;100.00;99206.53;5099198;28;20224;-80
2022/06/23 05:10:02;;;;;;;10.40;9.50;;;;;;;23.40;100.00;99214.66;5091656;28;20215;-82
2022/06/23 05:12:39;;;;;;;9.73;8.82;;;;;;;23.31;100.00;99213.81;5085564;28;20229;-82
2022/06/23 05:15:19;;;;;;;9.63;8.55;;;;;;;23.28;100.00;99216.03;5100383;28;20593;-81
2022/06/23 05:18:20;;;;;;;9.32;8.48;;;;;;;23.21;100.00;99223.06;5100225;27;20277;-81
2022/06/23 05:20:50;;;;;;;9.45;8.55;;;;;;;23.06;100.00;99224.25;5104450;27;20232;-82
2022/06/23 05:23:24;;;;;;;9.43;8.52;;;;;;;23.10;100.00;99227.16;5083681;28;20608;-81
2022/06/23 05:25:53;;;;;;;9.25;8.45;;;;;;;23.19;100.00;99228.03;5078889;28;20281;-81
2022/06/23 05:28:26;;;;;;;8.20;7.50;;;;;;;23.43;100.00;99222.22;5082976;28;20223;-81
2022/06/23 05:30:58;;;;;;;9.15;8.30;;;;;;;23.78;100.00;99234.19;5100319;28;20591;-82
2022/06/23 05:33:29;;;;;;;9.50;8.70;;;;;;;23.86;100.00;99233.41;5090084;28;20655;-82
2022/06/23 05:36:03;;;;;;;8.80;8.00;;;;;;;23.90;100.00;99228.91;5090873;28;20727;-81
2022/06/23 05:38:37;;;;;;;9.23;8.35;;;;;;;24.04;100.00;99229.59;5096465;28;20234;-81
2022/06/23 05:41:18;;;;;;;9.40;8.50;;;;;;;24.01;100.00;99244.72;5086273;28;20231;-82
2022/06/23 05:43:46;;;;;;;9.18;8.38;;;;;;;24.01;100.00;99247.47;5107551;28;20238;-82
2022/06/23 05:46:19;;;;;;;8.52;7.72;;;;;;;24.15;100.00;99255.56;5108006;28;20307;-81
2022/06/23 05:48:55;;;;;;;8.50;7.70;;;;;;;24.29;100.00;99258.19;5088155;28;20656;-81
2022/06/23 05:51:29;;;;;;;7.75;7.05;;;;;;;24.46;100.00;99260.97;5105696;28;20591;-81
2022/06/23 05:54:06;;;;;;;8.15;7.45;;;;;;;24.56;100.00;99266.94;5074597;28;20601;-81
2022/06/23 05:56:37;;;;;;;8.75;8.07;;;;;;;24.93;100.00;99270.22;5090670;28;20243;-80
2022/06/23 05:59:14;;;;;;;8.35;7.55;;;;;;;24.88;100.00;99270.38;5089809;28;20291;-81
2022/06/23 06:02:01;;;;;;;7.55;6.70;;;;;;;24.77;100.00;99269.06;5103298;28;20304;-82
2022/06/23 06:04:44;;;;;;;8.95;8.05;;;;;;;24.45;100.00;99268.34;5097462;28;20227;-80
2022/06/23 06:07:19;;;;;;;8.50;7.78;;;;;;;24.42;100.00;99273.69;5080819;28;20331;-80
2022/06/23 06:09:46;;;;;;;9.75;7.85;;;;;;;24.35;100.00;99271.44;5100096;28;20642;-81
2022/06/23 06:12:26;;;;;;;8.93;7.55;;;;;;;24.59;100.00;99281.91;5062647;28;20229;-81
2022/06/23 06:14:59;;;;;;;8.43;7.35;;;;;;;24.49;100.00;99276.75;5080894;28;20237;-82
2022/06/23 06:17:28;;;;;;;9.10;8.27;;;;;;;24.33;100.00;99268.19;5081439;28;20597;-82
2022/06/23 06:19:59;;;;;;;9.43;8.70;;;;;;;24.36;100.00;99275.75;5078151;28;20233;-81
2022/06/23 06:22:53;;;;;;;8.52;7.72;;;;;;;24.44;100.00;99277.72;5083205;28;20245;-81
2022/06/23 06:25:26;;;;;;;8.23;7.32;;;;;;;24.34;100.00;99269.81;5081042;28;20240;-82
2022/06/23 06:27:54;;;;;;;8.40;7.65;;;;;;;24.43;100.00;99273.38;5081168;28;20281;-81
2022/06/23 06:30:27;;;;;;;9.55;8.75;;;;;;;24.61;100.00;99276.94;5091131;28;20767;-81
2022/06/23 06:32:55;;;;;;;10.00;8.40;;;;;;;24.52;100.00;99276.94;5092196;28;20235;-81
2022/06/23 06:35:29;;;;;;;9.43;8.63;;;;;;;24.61;100.00;99284.34;5088480;28;20247;-81
2022/06/23 06:38:06;;;;;;;8.93;8.13;;;;;;;24.76;100.00;99271.00;5069326;28;20576;-81
2022/06/23 06:40:34;;;;;;;9.18;8.32;;;;;;;24.39;100.00;99266.91;5107455;27;20694;-81
2022/06/23 06:43:08;;;;;;;8.85;7.95;;;;;;;24.46;100.00;99269.97;5110562;28;20267;-81
2022/06/23 06:45:36;;;;;;;8.98;8.18;;;;;;;24.29;100.00;99259.00;5100661;27;20233;-81
2022/06/23 06:48:10;;;;;;;8.55;7.75;;;;;;;24.16;100.00;99262.69;5100834;27;20233;-82
2022/06/23 06:50:42;;;;;;;9.00;8.10;;;;;;;23.96;100.00;99261.28;5102136;27;20230;-80
2022/06/23 06:53:32;;;;;;;9.60;8.35;;;;;;;24.35;100.00;99271.44;5117492;27;20215;-82
2022/06/23 06:56:06;;;;;;;8.98;8.13;;;;;;;24.40;100.00;99270.47;5094892;28;20282;-81
2022/06/23 06:58:39;;;;;;;8.27;7.60;;;;;;;24.75;100.00;99261.16;5101346;27;20231;-81
2022/06/23 07:01:20;;;;;;;8.38;7.57;;;;;;;25.07;100.00;99272.78;5098624;27;20231;-80
2022/06/23 07:03:49;;;;;;;7.78;6.70;;;;;;;25.20;100.00;99271.78;5091767;28;20239;-81
2022/06/23 07:06:25;;;;;;;8.25;7.45;;;;;;;25.31;100.00;99284.06;5104144;27;20263;-81
2022/06/23 07:09:13;;;;;;;7.13;6.53;;;;;;;25.49;100.00;99271.91;5104146;27;20256;-81
2022/06/23 07:11:44;;;;;;;7.00;6.40;;;;;;;25.65;100.00;99281.28;5100078;27;20763;-82
2022/06/23 07:14:36;;;;;;;8.23;6.90;;;;;;;25.68;100.00;99266.09;5111176;28;20235;-82
2022/06/23 07:17:12;;;;;;;9.27;7.60;;;;;;;25.55;100.00;99275.31;5112790;27;20283;-81
2022/06/23 07:19:50;;;;;;;10.75;8.40;;;;;;;25.71;100.00;99270.94;5097577;28;20226;-82
2022/06/23 07:22:40;;;;;;;8.65;7.80;;;;;;;25.84;100.00;99270.72;5101564;28;20342;-82
2022/06/23 07:25:26;;;;;;;8.75;6.88;;;;;;;25.96;100.00;99272.75;5107204;27;20698;-83
2022/06/23 07:28:02;;;;;;;8.38;7.60;;;;;;;25.99;100.00;99271.31;5113682;27;20242;-82
2022/06/23 07:30:35;;;;;;;8.18;7.47;;;;;;;26.16;100.00;99268.47;5098614;27;20246;-82
2022/06/23 07:33:06;;;;;;;8.57;7.35;;;;;;;26.31;100.00;99278.13;5106459;28;20238;-81
2022/06/23 07:35:48;;;;;;;7.30;6.80;;;;;;;26.36;98.26;99269.69;5086809;28;20239;-80
2022/06/23 07:38:22;;;;;;;6.95;6.22;;;;;;;26.40;100.00;99273.38;5083308;28;20231;-81
2022/06/23 07:41:01;;;;;;;8.45;7.75;;;;;;;25.78;100.00;99273.97;5095881;28;20230;-81
2022/06/23 07:43:36;;;;;;;7.72;6.75;;;;;;;26.06;100.00;99271.59;5085128;28;20693;-81
2022/06/23 07:46:03;;;;;;;7.88;7.20;;;;;;;26.14;100.00;99268.78;5106764;28;20227;-81
2022/06/23 07:48:32;;;;;;;7.60;6.78;;;;;;;26.01;100.00;99274.50;5096330;28;20250;-81
2022/06/23 07:51:01;;;;;;;9.88;7.38;;;;;;;26.12;100.00;99262.84;5088501;28;20234;-81
2022/06/23 07:53:31;;;;;;;7.95;7.05;;;;;;;25.79;100.00;99264.59;5087594;27;20223;-81
2022/06/23 07:55:58;;;;;;;7.43;6.72;;;;;;;25.99;100.00;99263.84;5084056;28;20230;-81
2022/06/23 07:58:28;;;;;;;8.07;6.40;;;;;;;26.22;100.00;99273.47;5102275;27;20587;-80
2022/06/23 08:01:08;;;;;;;7.47;6.80;;;;;;;26.50;93.20;99273.78;5067404;27;20318;-81
2022/06/23 08:03:40;;;;;;;6.65;6.00;;;;;;;26.59;93.83;99280.06;5090232;27;20582;-80
2022/06/23 08:06:11;;;;;;;6.07;5.40;;;;;;;26.80;93.16;99276.50;5089640;28;20250;-81
2022/06/23 08:08:39;;;;;;;6.10;5.55;;;;;;;26.81;93.42;99269.84;5090451;27;20231;-81
2022/06/23 08:14:31;;;;;;;5.53;5.03;;;;;;;27.39;84.37;99266.13;5099847;27;20263;-81
2022/06/23 08:16:59;;;;;;;5.57;5.18;;;;;;;27.49;82.76;99269.28;5089962;27;20254;-81
2022/06/23 08:19:40;;;;;;;7.88;5.28;;;;;;;27.55;86.41;99270.69;5080206;27;20755;-81
2022/06/23 08:22:11;;;;;;;5.60;5.00;;;;;;;27.39;79.09;99266.13;5105748;27;20245;-81
2022/06/23 08:24:38;;;;;;;6.18;4.88;;;;;;;27.31;76.98;99270.56;5087029;28;20704;-81
2022/06/23 08:27:11;;;;;;;5.90;5.05;;;;;;;27.46;74.18;99275.44;5076222;28;20224;-82
2022/06/23 08:29:58;;;;;;;5.72;4.75;;;;;;;27.92;76.63;99266.03;5090201;28;20228;-81
2022/06/23 08:32:25;;;;;;;8.18;4.93;;;;;;;27.80;76.77;99271.53;5084627;28;20238;-80
2022/06/23 08:35:11;;;;;;;5.38;4.88;;;;;;;28.35;72.94;99261.94;5087780;28;20228;-81
2022/06/23 08:37:42;;;;;;;4.88;4.50;;;;;;;28.64;70.04;99264.41;5074566;27;20237;-82
2022/06/23 08:40:45;;;;;;;5.03;4.60;;;;;;;28.74;71.28;99266.69;5099149;28;20223;-83
2022/06/23 08:43:17;;;;;;;5.07;4.68;;;;;;;28.68;68.31;99270.03;5092596;28;20239;-83
2022/06/23 08:46:06;;;;;;;5.15;4.43;;;;;;;28.37;66.11;99259.63;5090922;28;20318;-83
2022/06/23 08:49:02;;;;;;;4.85;4.43;;;;;;;28.69;63.51;99257.88;5090944;27;20703;-81
2022/06/23 08:51:41;;;;;;;4.43;3.72;;;;;;;28.59;60.80;99264.66;5058481;27;20224;-81
2022/06/23 08:54:16;;;;;;;4.70;3.80;;;;;;;28.91;58.97;99262.88;5113185;27;20447;-81
2022/06/23 08:57:06;;;;;;;3.90;3.50;;;;;;;29.18;56.75;99267.59;5108577;27;20239;-81
2022/06/23 08:59:40;;;;;;;4.53;4.13;;;;;;;28.75;56.45;99260.03;5078424;28;20238;-82
2022/06/23 09:02:18;;;;;;;4.45;3.70;;;;;;;29.28;55.51;99266.28;5088866;28;20235;-81
2022/06/23 09:05:17;;;;;;;4.70;3.75;;;;;;;28.77;52.16;99263.25;5112686;27;20269;-81
2022/06/23 09:07:49;;;;;;;3.83;3.50;;;;;;;29.07;53.26;99260.19;5126631;27;20322;-81
2022/06/23 09:10:38;;;;;;;4.60;3.88;;;;;;;29.34;52.61;99259.41;5112938;27;20632;-81
2022/06/23 09:13:31;;;;;;;4.55;3.90;;;;;;;29.40;53.65;99255.22;5116990;27;20250;-81
2022/06/23 09:16:32;;;;;;;5.72;3.88;;;;;;;29.85;53.73;99256.78;5110468;28;20614;-81
2022/06/23 09:19:14;;;;;;;5.90;3.80;;;;;;;29.96;53.18;99255.91;5102608;28;20318;-81
2022/06/23 09:22:12;;;;;;;4.03;3.65;;;;;;;29.74;48.48;99254.53;5101337;28;20641;-81
2022/06/23 09:24:56;;;;;;;4.53;4.13;;;;;;;29.41;53.39;99256.81;5101626;28;20284;-80
2022/06/23 09:27:35;;;;;;;6.32;4.45;;;;;;;29.01;56.10;99265.16;5099547;28;20232;-81
2022/06/23 09:30:06;;;;;;;5.85;4.15;;;;;;;29.32;54.74;99258.94;5083546;28;20222;-81
2022/06/23 09:32:33;;;;;;;4.38;3.92;;;;;;;29.42;52.67;99252.91;5101779;28;20232;-81
2022/06/23 09:35:22;;;;;;;4.65;4.25;;;;;;;28.96;56.51;99256.31;5097046;28;20626;-82
2022/06/23 09:38:08;;;;;;;4.47;4.07;;;;;;;29.21;54.88;99257.81;5108248;28;20670;-82
2022/06/23 09:40:48;;;;;;;4.22;3.75;;;;;;;29.61;51.79;99264.06;5095764;28;20265;-81
2022/06/23 09:43:27;;;;;;;3.63;3.22;;;;;;;30.00;47.01;99248.50;5066475;28;20227;-81
2022/06/23 09:46:02;;;;;;;3.63;3.33;;;;;;;30.49;44.10;99239.81;5100671;28;20230;-81
2022/06/23 09:48:45;;;;;;;4.43;3.25;;;;;;;30.64;41.66;99240.94;5104874;28;20272;-81
2022/06/23 09:51:45;;;;;;;4.28;3.40;;;;;;;30.58;42.18;99240.41;5081424;28;20262;-81
2022/06/23 09:54:21;;;;;;;4.30;3.20;;;;;;;30.74;43.69;99248.66;5084622;28;20224;-81
2022/06/23 09:57:04;;;;;;;5.13;3.17;;;;;;;31.02;40.17;99244.56;5103034;27;20242;-82
2022/06/23 10:00:03;;;;;;;4.03;3.13;;;;;;;30.80;40.93;99242.47;5114990;27;20246;-81
2022/06/23 10:03:03;;;;;;;4.25;3.47;;;;;;;31.01;41.66;99240.19;5079001;28;20238;-81
2022/06/23 10:05:56;;;;;;;4.00;3.70;;;;;;;29.80;47.66;99255.09;5095250;27;20247;-81
2022/06/23 10:08:39;;;;;;;5.20;4.18;;;;;;;29.54;45.41;99249.25;5094550;27;20639;-81
2022/06/23 10:11:24;;;;;;;4.53;4.10;;;;;;;29.20;44.35;99246.00;5093799;28;20879;-82
2022/06/23 10:14:21;;;;;;;4.47;3.40;;;;;;;29.58;41.38;99241.91;5115336;27;20234;-81
2022/06/23 10:17:19;;;;;;;5.22;3.85;;;;;;;30.07;44.18;99250.66;5100751;27;20234;-81
2022/06/23 10:20:14;;;;;;;4.75;4.00;;;;;;;29.41;44.54;99248.53;5093305;28;20228;-81
2022/06/23 10:22:57;;;;;;;4.18;3.80;;;;;;;29.63;44.15;99239.66;5111651;27;20652;-81
2022/06/23 10:25:42;;;;;;;4.07;3.63;;;;;;;29.87;44.00;99226.84;5094981;28;20228;-81
2022/06/23 10:28:28;;;;;;;4.40;3.67;;;;;;;30.10;43.71;99241.63;5089099;27;20226;-81
2022/06/23 10:31:03;;;;;;;4.13;3.72;;;;;;;30.20;43.10;99235.56;5109332;27;20234;-83
2022/06/23 10:33:52;;;;;;;4.40;3.75;;;;;;;30.73;40.67;99227.69;5109367;27;20597;-81
2022/06/23 10:36:44;;;;;;;4.55;3.40;;;;;;;31.09;39.04;99238.34;5080417;28;20236;-82
2022/06/23 10:39:32;;;;;;;3.90;3.50;;;;;;;31.35;37.33;99226.59;5085533;28;20289;-82
2022/06/23 10:42:20;;;;;;;5.05;3.47;;;;;;;30.81;37.20;99226.69;5106747;27;20227;-81
2022/06/23 10:45:02;;;;;;;4.28;3.10;;;;;;;30.53;39.94;99219.38;5109942;27;20227;-82
2022/06/23 10:47:46;;;;;;;4.40;3.35;;;;;;;29.55;41.91;99232.34;5093815;28;20721;-81
2022/06/23 10:50:13;;;;;;;4.35;3.50;;;;;;;29.74;39.56;99223.38;5090059;27;20228;-81
2022/06/23 10:53:08;;;;;;;3.58;3.17;;;;;;;30.12;40.10;99220.78;5108984;27;20270;-81
2022/06/23 10:55:34;;;;;;;4.60;3.35;;;;;;;30.30;39.31;99220.41;5099829;28;20235;-80
2022/06/23 10:58:20;;;;;;;3.78;3.13;;;;;;;30.49;39.87;99218.50;5115429;27;20227;-79
2022/06/23 11:00:57;;;;;;;4.53;3.47;;;;;;;30.32;39.52;99218.88;5106753;28;20228;-81
2022/06/23 11:03:33;;;;;;;6.00;3.10;;;;;;;30.14;39.89;99218.47;5094080;27;20247;-81
2022/06/23 11:06:06;;;;;;;3.95;3.00;;;;;;;30.77;38.05;99220.28;5109341;27;20237;-77
2022/06/23 11:08:53;;;;;;;3.28;2.70;;;;;;;30.94;38.05;99214.28;5105100;27;20230;-81
2022/06/23 11:11:34;;;;;;;3.45;3.15;;;;;;;31.35;36.47;99208.03;5091694;28;20730;-81
2022/06/23 11:14:12;;;;;;;3.92;3.00;;;;;;;31.61;35.61;99203.75;5111057;27;20710;-78
2022/06/23 11:16:57;;;;;;;3.72;3.33;;;;;;;31.19;35.79;99206.53;5098865;27;20232;-81
2022/06/23 11:19:33;;;;;;;3.22;2.90;;;;;;;31.44;35.98;99200.28;5112781;27;20250;-81
2022/06/23 11:22:19;;;;;;;4.95;2.80;;;;;;;31.81;37.38;99194.22;5109833;27;20231;-82
2022/06/23 11:25:07;;;;;;;3.80;3.00;;;;;;;32.00;35.92;99190.56;5117170;27;20227;-81
2022/06/23 11:27:54;;;;;;;5.28;2.75;;;;;;;32.21;34.49;99194.47;5108406;27;20235;-81
2022/06/23 11:30:28;;;;;;;3.60;3.10;;;;;;;32.38;33.70;99197.88;5089116;28;20658;-81
2022/06/23 11:33:03;;;;;;;3.72;3.25;;;;;;;32.05;34.98;99196.56;5099323;27;20263;-81
2022/06/23 11:35:32;;;;;;;3.88;3.25;;;;;;;31.12;35.86;99195.34;5096871;28;20230;-81
2022/06/23 11:38:17;;;;;;;5.90;3.38;;;;;;;31.12;35.27;99198.09;5114610;27;20229;-81
2022/06/23 11:40:59;;;;;;;3.63;2.88;;;;;;;31.20;36.41;99197.88;5098751;28;20239;-81
2022/06/23 11:43:32;;;;;;;4.93;3.28;;;;;;;31.79;36.59;99197.34;5111802;28;20234;-81
2022/06/23 11:46:25;;;;;;;4.32;3.20;;;;;;;31.79;34.01;99193.75;5118461;27;20237;-82
2022/06/23 11:49:25;;;;;;;3.85;2.78;;;;;;;31.88;33.87;99186.00;5091106;28;20264;-81
2022/06/23 11:51:52;;;;;;;3.15;2.85;;;;;;;32.25;32.18;99184.22;5094147;28;20226;-82
2022/06/23 11:54:40;;;;;;;3.63;3.03;;;;;;;32.73;31.32;99178.94;5118689;27;20226;-81
2022/06/23 11:57:13;;;;;;;3.35;2.70;;;;;;;33.03;31.76;99179.69;5111860;28;20232;-81
2022/06/23 11:59:40;;;;;;;5.63;2.85;;;;;;;33.37;30.79;99185.19;5119042;27;20279;-81
2022/06/23 12:02:26;;;;;;;3.20;2.60;;;;;;;33.53;30.98;99185.78;5118882;27;20249;-80
2022/06/23 12:05:04;;;;;;;3.42;2.80;;;;;;;33.35;29.26;99187.59;5119605;27;20588;-81
2022/06/23 12:07:44;;;;;;;3.42;2.58;;;;;;;33.24;29.40;99181.13;5095756;28;20327;-82
2022/06/23 12:10:18;;;;;;;2.70;2.50;;;;;;;33.38;29.63;99176.50;5116466;27;20230;-82
2022/06/23 12:12:47;;;;;;;5.38;2.45;;;;;;;33.31;29.39;99170.91;5115219;27;20235;-81
2022/06/23 12:15:21;;;;;;;4.07;2.60;;;;;;;32.53;31.18;99164.41;5095872;28;20247;-81
2022/06/23 12:17:55;;;;;;;2.92;2.47;;;;;;;32.47;30.84;99165.13;5098627;27;20223;-81
2022/06/23 12:20:27;;;;;;;4.70;2.75;;;;;;;32.27;32.33;99159.72;5096408;27;20283;-81
2022/06/23 12:22:58;;;;;;;4.10;2.45;;;;;;;31.77;31.93;99160.13;5112189;27;20308;-81
2022/06/23 12:25:27;;;;;;;3.17;2.10;;;;;;;32.22;32.50;99164.78;5115893;27;20778;-81